Página principal
METAR-TAF:

METAR-TAF

Aeroportos :

Caracas, Venezuela

Aeroporto Internacional Simón Bolívar

latitude: 10-36N, longitude: 066-59W, altura: 43 m

Observação actual do tempo

O boletim foi feito há 7 minutos, às 21:00 UTC
Vento 5 kt de este
Temperatura 27°C
Humidade 79%
Pressão 1006 hPa
Visibilidade 10 km ou mais
Nuvens fragmentadasa uma altura de 1300 ft

METAR: SVMI 212100Z 09005KT 9999 BKN013 27/23 Q1006

Hora: 17:07 (21:07 UTC)

Previsão

O boletim foi feito há 5 horas e 7 minutos, às 16:00 UTC
Previsão válida de 21 às 18 UTC a 22 às 18 UTC
Vento 8 kt de este
Visibilidade 10 km ou mais
Poucas nuvensa uma altura de 1600 ft
Tornando-se
de 21 às 19 UTC a 21 às 23 UTC
Vento 10 kt de es-nordeste
Nuvens dispersasa uma altura de 1600 ft

TAF: SVMI 211600Z 2118/2218 09008KT 9999 FEW016 TX31/18Z TN24/09Z BECMG 2119/2123 07010KT SCT016

Observações e previsões do tempo de mais de 4000 aeroportos (mensagens METAR e TAF).

As estações disponíveis são os pontos amarelos e vermelhos sobre o mapa.

Mova o rato sobre o mapa para ver o nome da estação.

Depois clique no ponto para visualizar as observações e previsões meteorológicas.

Para alterar o mapa : clique nos botões verdes com uma cruz preta para aumentar o zoom; no botão verde com uma pitada de zoom; ou nas setas verdes para mapas adjacentes.


METAR-TAF: